sensor_id;sensor_type;location;lat;lon;timestamp;P1;durP1;ratioP1;P2;durP2;ratioP2
1593;SDS011;790;47.000;16.084;2023-04-01T00:02:03;2.23;;;2.03;;
1593;SDS011;790;47.000;16.084;2023-04-01T00:04:30;2.30;;;2.10;;
1593;SDS011;790;47.000;16.084;2023-04-01T00:06:59;2.20;;;2.00;;
1593;SDS011;790;47.000;16.084;2023-04-01T00:09:27;2.23;;;2.10;;
1593;SDS011;790;47.000;16.084;2023-04-01T00:11:54;2.03;;;1.93;;
1593;SDS011;790;47.000;16.084;2023-04-01T00:14:27;2.27;;;2.17;;
1593;SDS011;790;47.000;16.084;2023-04-01T00:16:55;2.50;;;2.30;;
1593;SDS011;790;47.000;16.084;2023-04-01T00:19:22;2.23;;;2.13;;
1593;SDS011;790;47.000;16.084;2023-04-01T00:21:50;2.40;;;2.20;;
1593;SDS011;790;47.000;16.084;2023-04-01T00:24:17;2.93;;;2.60;;
1593;SDS011;790;47.000;16.084;2023-04-01T00:26:44;3.27;;;2.90;;
1593;SDS011;790;47.000;16.084;2023-04-01T00:29:13;3.40;;;3.10;;
1593;SDS011;790;47.000;16.084;2023-04-01T00:31:42;2.23;;;2.03;;
1593;SDS011;790;47.000;16.084;2023-04-01T00:34:09;2.60;;;2.40;;
1593;SDS011;790;47.000;16.084;2023-04-01T00:36:36;2.73;;;2.53;;
1593;SDS011;790;47.000;16.084;2023-04-01T00:39:04;2.27;;;2.17;;
1593;SDS011;790;47.000;16.084;2023-04-01T00:41:31;2.67;;;2.47;;
1593;SDS011;790;47.000;16.084;2023-04-01T00:44:17;5.40;;;3.27;;
1593;SDS011;790;47.000;16.084;2023-04-01T00:46:47;3.47;;;3.13;;
1593;SDS011;790;47.000;16.084;2023-04-01T00:49:15;2.87;;;2.67;;
1593;SDS011;790;47.000;16.084;2023-04-01T00:51:47;3.20;;;2.60;;
1593;SDS011;790;47.000;16.084;2023-04-01T00:54:16;4.13;;;3.10;;
1593;SDS011;790;47.000;16.084;2023-04-01T00:56:46;3.30;;;2.70;;
1593;SDS011;790;47.000;16.084;2023-04-01T00:59:22;3.13;;;2.60;;
1593;SDS011;790;47.000;16.084;2023-04-01T01:01:57;2.47;;;2.37;;
1593;SDS011;790;47.000;16.084;2023-04-01T01:04:26;4.17;;;2.27;;
1593;SDS011;790;47.000;16.084;2023-04-01T01:06:58;2.30;;;2.10;;
1593;SDS011;790;47.000;16.084;2023-04-01T01:09:38;2.30;;;2.10;;
1593;SDS011;790;47.000;16.084;2023-04-01T01:12:14;2.20;;;2.10;;
1593;SDS011;790;47.000;16.084;2023-04-01T01:14:48;3.23;;;2.43;;
1593;SDS011;790;47.000;16.084;2023-04-01T01:17:35;3.17;;;2.50;;
1593;SDS011;790;47.000;16.084;2023-04-01T01:20:21;3.10;;;2.47;;
1593;SDS011;790;47.000;16.084;2023-04-01T01:23:03;2.53;;;2.40;;
1593;SDS011;790;47.000;16.084;2023-04-01T01:25:51;2.40;;;2.07;;
1593;SDS011;790;47.000;16.084;2023-04-01T01:28:35;2.30;;;2.20;;
1593;SDS011;790;47.000;16.084;2023-04-01T01:31:21;3.10;;;2.90;;
1593;SDS011;790;47.000;16.084;2023-04-01T01:34:01;2.73;;;2.60;;
1593;SDS011;790;47.000;16.084;2023-04-01T01:36:40;2.83;;;2.60;;
1593;SDS011;790;47.000;16.084;2023-04-01T01:39:11;3.13;;;2.60;;
1593;SDS011;790;47.000;16.084;2023-04-01T01:41:41;4.50;;;2.90;;
1593;SDS011;790;47.000;16.084;2023-04-01T01:44:12;3.00;;;2.80;;
1593;SDS011;790;47.000;16.084;2023-04-01T01:46:44;2.70;;;2.50;;
1593;SDS011;790;47.000;16.084;2023-04-01T01:49:13;3.40;;;2.87;;
1593;SDS011;790;47.000;16.084;2023-04-01T01:51:42;2.80;;;2.60;;
1593;SDS011;790;47.000;16.084;2023-04-01T01:54:16;2.60;;;2.40;;
1593;SDS011;790;47.000;16.084;2023-04-01T01:56:44;3.33;;;3.00;;
1593;SDS011;790;47.000;16.084;2023-04-01T01:59:14;3.27;;;3.10;;
1593;SDS011;790;47.000;16.084;2023-04-01T02:01:45;3.80;;;3.50;;
1593;SDS011;790;47.000;16.084;2023-04-01T02:04:15;3.60;;;3.40;;
1593;SDS011;790;47.000;16.084;2023-04-01T02:06:56;3.77;;;3.30;;
1593;SDS011;790;47.000;16.084;2023-04-01T02:09:27;3.27;;;3.07;;
1593;SDS011;790;47.000;16.084;2023-04-01T02:11:56;3.40;;;3.10;;
1593;SDS011;790;47.000;16.084;2023-04-01T02:14:26;3.30;;;3.00;;
1593;SDS011;790;47.000;16.084;2023-04-01T02:17:05;3.33;;;3.13;;
1593;SDS011;790;47.000;16.084;2023-04-01T02:19:36;3.57;;;3.23;;
1593;SDS011;790;47.000;16.084;2023-04-01T02:22:11;3.30;;;3.10;;
1593;SDS011;790;47.000;16.084;2023-04-01T02:24:42;2.93;;;2.83;;
1593;SDS011;790;47.000;16.084;2023-04-01T02:27:14;3.63;;;3.43;;
1593;SDS011;790;47.000;16.084;2023-04-01T02:29:43;3.50;;;3.30;;
1593;SDS011;790;47.000;16.084;2023-04-01T02:32:13;3.77;;;3.47;;
1593;SDS011;790;47.000;16.084;2023-04-01T02:34:42;3.20;;;3.10;;
1593;SDS011;790;47.000;16.084;2023-04-01T02:37:11;4.07;;;3.43;;
1593;SDS011;790;47.000;16.084;2023-04-01T02:39:42;4.43;;;4.13;;
1593;SDS011;790;47.000;16.084;2023-04-01T02:42:11;4.40;;;3.73;;
1593;SDS011;790;47.000;16.084;2023-04-01T02:47:16;3.80;;;3.30;;
1593;SDS011;790;47.000;16.084;2023-04-01T02:49:43;4.37;;;3.83;;
1593;SDS011;790;47.000;16.084;2023-04-01T02:52:11;4.40;;;3.90;;
1593;SDS011;790;47.000;16.084;2023-04-01T02:54:39;4.13;;;3.70;;
1593;SDS011;790;47.000;16.084;2023-04-01T02:57:06;3.70;;;3.40;;
1593;SDS011;790;47.000;16.084;2023-04-01T02:59:33;4.17;;;3.87;;
1593;SDS011;790;47.000;16.084;2023-04-01T03:02:01;4.10;;;3.80;;
1593;SDS011;790;47.000;16.084;2023-04-01T03:04:28;4.00;;;3.70;;
1593;SDS011;790;47.000;16.084;2023-04-01T03:06:55;5.03;;;3.70;;
1593;SDS011;790;47.000;16.084;2023-04-01T03:09:24;3.67;;;3.40;;
1593;SDS011;790;47.000;16.084;2023-04-01T03:11:52;3.67;;;3.37;;
1593;SDS011;790;47.000;16.084;2023-04-01T03:14:19;4.07;;;3.77;;
1593;SDS011;790;47.000;16.084;2023-04-01T03:16:48;4.07;;;3.70;;
1593;SDS011;790;47.000;16.084;2023-04-01T03:19:15;4.20;;;3.73;;
1593;SDS011;790;47.000;16.084;2023-04-01T03:21:42;3.80;;;3.50;;
1593;SDS011;790;47.000;16.084;2023-04-01T03:24:09;3.63;;;3.43;;
1593;SDS011;790;47.000;16.084;2023-04-01T03:26:38;3.50;;;3.30;;
1593;SDS011;790;47.000;16.084;2023-04-01T03:29:05;3.67;;;3.37;;
1593;SDS011;790;47.000;16.084;2023-04-01T03:31:32;3.50;;;3.30;;
1593;SDS011;790;47.000;16.084;2023-04-01T03:33:59;4.00;;;3.67;;
1593;SDS011;790;47.000;16.084;2023-04-01T03:36:26;3.37;;;3.07;;
1593;SDS011;790;47.000;16.084;2023-04-01T03:38:53;3.90;;;3.60;;
1593;SDS011;790;47.000;16.084;2023-04-01T03:41:21;3.80;;;3.50;;
1593;SDS011;790;47.000;16.084;2023-04-01T03:43:50;3.00;;;2.80;;
1593;SDS011;790;47.000;16.084;2023-04-01T03:46:17;3.20;;;3.00;;
1593;SDS011;790;47.000;16.084;2023-04-01T03:48:44;3.50;;;3.20;;
1593;SDS011;790;47.000;16.084;2023-04-01T03:51:11;3.47;;;3.27;;
1593;SDS011;790;47.000;16.084;2023-04-01T03:53:38;3.50;;;3.20;;
1593;SDS011;790;47.000;16.084;2023-04-01T03:56:06;3.50;;;3.40;;
1593;SDS011;790;47.000;16.084;2023-04-01T03:58:35;3.90;;;3.50;;
1593;SDS011;790;47.000;16.084;2023-04-01T04:01:13;3.43;;;3.23;;
1593;SDS011;790;47.000;16.084;2023-04-01T04:03:42;3.80;;;3.50;;
1593;SDS011;790;47.000;16.084;2023-04-01T04:06:11;4.53;;;4.17;;
1593;SDS011;790;47.000;16.084;2023-04-01T04:08:38;4.07;;;3.87;;
1593;SDS011;790;47.000;16.084;2023-04-01T04:11:06;4.47;;;4.13;;
1593;SDS011;790;47.000;16.084;2023-04-01T04:13:34;4.93;;;4.53;;
1593;SDS011;790;47.000;16.084;2023-04-01T04:16:02;5.03;;;3.73;;
1593;SDS011;790;47.000;16.084;2023-04-01T04:18:35;7.40;;;4.20;;
1593;SDS011;790;47.000;16.084;2023-04-01T04:21:03;4.60;;;4.30;;
1593;SDS011;790;47.000;16.084;2023-04-01T04:23:30;4.57;;;4.27;;
1593;SDS011;790;47.000;16.084;2023-04-01T04:26:00;4.40;;;4.10;;
1593;SDS011;790;47.000;16.084;2023-04-01T04:28:30;4.47;;;4.07;;
1593;SDS011;790;47.000;16.084;2023-04-01T04:30:58;4.70;;;4.30;;
1593;SDS011;790;47.000;16.084;2023-04-01T04:33:26;4.90;;;4.33;;
1593;SDS011;790;47.000;16.084;2023-04-01T04:35:56;4.87;;;4.40;;
1593;SDS011;790;47.000;16.084;2023-04-01T04:38:25;4.07;;;3.80;;
1593;SDS011;790;47.000;16.084;2023-04-01T04:40:52;4.20;;;3.90;;
1593;SDS011;790;47.000;16.084;2023-04-01T04:43:20;3.93;;;3.73;;
1593;SDS011;790;47.000;16.084;2023-04-01T04:45:48;5.73;;;3.67;;
1593;SDS011;790;47.000;16.084;2023-04-01T04:48:15;3.43;;;2.83;;
1593;SDS011;790;47.000;16.084;2023-04-01T04:50:44;3.50;;;3.30;;
1593;SDS011;790;47.000;16.084;2023-04-01T04:53:13;3.57;;;3.37;;
1593;SDS011;790;47.000;16.084;2023-04-01T04:55:42;3.30;;;3.20;;
1593;SDS011;790;47.000;16.084;2023-04-01T04:58:10;3.83;;;3.63;;
1593;SDS011;790;47.000;16.084;2023-04-01T05:00:37;2.77;;;2.60;;
1593;SDS011;790;47.000;16.084;2023-04-01T05:03:05;3.23;;;3.10;;
1593;SDS011;790;47.000;16.084;2023-04-01T05:05:33;4.00;;;3.80;;
1593;SDS011;790;47.000;16.084;2023-04-01T05:08:00;3.77;;;3.50;;
1593;SDS011;790;47.000;16.084;2023-04-01T05:10:29;3.30;;;3.20;;
1593;SDS011;790;47.000;16.084;2023-04-01T05:12:57;5.67;;;5.17;;
1593;SDS011;790;47.000;16.084;2023-04-01T05:15:24;4.10;;;3.80;;
1593;SDS011;790;47.000;16.084;2023-04-01T05:17:51;3.93;;;3.63;;
1593;SDS011;790;47.000;16.084;2023-04-01T05:20:18;3.47;;;3.27;;
1593;SDS011;790;47.000;16.084;2023-04-01T05:22:45;4.93;;;2.93;;
1593;SDS011;790;47.000;16.084;2023-04-01T05:25:12;3.13;;;2.93;;
1593;SDS011;790;47.000;16.084;2023-04-01T05:27:41;3.90;;;3.60;;
1593;SDS011;790;47.000;16.084;2023-04-01T05:30:08;3.97;;;3.77;;
1593;SDS011;790;47.000;16.084;2023-04-01T05:32:36;4.80;;;4.37;;
1593;SDS011;790;47.000;16.084;2023-04-01T05:35:03;3.93;;;3.57;;
1593;SDS011;790;47.000;16.084;2023-04-01T05:37:32;3.87;;;3.57;;
1593;SDS011;790;47.000;16.084;2023-04-01T05:40:00;4.10;;;3.70;;
1593;SDS011;790;47.000;16.084;2023-04-01T05:42:28;8.90;;;7.60;;
1593;SDS011;790;47.000;16.084;2023-04-01T05:44:56;9.30;;;8.20;;
1593;SDS011;790;47.000;16.084;2023-04-01T05:47:23;11.30;;;8.30;;
1593;SDS011;790;47.000;16.084;2023-04-01T05:49:51;11.03;;;9.37;;
1593;SDS011;790;47.000;16.084;2023-04-01T05:52:18;13.83;;;10.67;;
1593;SDS011;790;47.000;16.084;2023-04-01T05:54:45;11.10;;;10.00;;
1593;SDS011;790;47.000;16.084;2023-04-01T05:57:12;12.70;;;11.47;;
1593;SDS011;790;47.000;16.084;2023-04-01T05:59:40;16.33;;;14.70;;
1593;SDS011;790;47.000;16.084;2023-04-01T06:02:09;19.80;;;17.03;;
1593;SDS011;790;47.000;16.084;2023-04-01T06:04:37;14.30;;;12.93;;
1593;SDS011;790;47.000;16.084;2023-04-01T06:07:10;9.00;;;8.20;;
1593;SDS011;790;47.000;16.084;2023-04-01T06:09:38;10.10;;;9.10;;
1593;SDS011;790;47.000;16.084;2023-04-01T06:12:18;13.80;;;12.50;;
1593;SDS011;790;47.000;16.084;2023-04-01T06:15:16;12.13;;;11.03;;
1593;SDS011;790;47.000;16.084;2023-04-01T06:17:56;13.43;;;12.10;;
1593;SDS011;790;47.000;16.084;2023-04-01T06:20:39;8.90;;;8.27;;
1593;SDS011;790;47.000;16.084;2023-04-01T06:23:21;5.97;;;5.50;;
1593;SDS011;790;47.000;16.084;2023-04-01T06:26:01;6.40;;;5.83;;
1593;SDS011;790;47.000;16.084;2023-04-01T06:28:51;6.60;;;6.20;;
1593;SDS011;790;47.000;16.084;2023-04-01T06:31:36;7.77;;;7.27;;
1593;SDS011;790;47.000;16.084;2023-04-01T06:34:24;7.20;;;6.70;;
1593;SDS011;790;47.000;16.084;2023-04-01T06:37:03;7.57;;;7.07;;
1593;SDS011;790;47.000;16.084;2023-04-01T06:40:04;5.17;;;4.87;;
1593;SDS011;790;47.000;16.084;2023-04-01T06:42:45;4.87;;;4.47;;
1593;SDS011;790;47.000;16.084;2023-04-01T06:45:22;4.93;;;4.63;;
1593;SDS011;790;47.000;16.084;2023-04-01T06:48:02;7.63;;;7.10;;
1593;SDS011;790;47.000;16.084;2023-04-01T06:50:51;7.97;;;7.27;;
1593;SDS011;790;47.000;16.084;2023-04-01T06:53:25;6.90;;;6.40;;
1593;SDS011;790;47.000;16.084;2023-04-01T06:56:00;7.10;;;6.60;;
1593;SDS011;790;47.000;16.084;2023-04-01T06:58:34;6.47;;;6.07;;
1593;SDS011;790;47.000;16.084;2023-04-01T07:01:06;4.20;;;4.00;;
1593;SDS011;790;47.000;16.084;2023-04-01T07:03:38;4.13;;;3.73;;
1593;SDS011;790;47.000;16.084;2023-04-01T07:06:10;5.17;;;3.93;;
1593;SDS011;790;47.000;16.084;2023-04-01T07:08:43;4.10;;;3.90;;
1593;SDS011;790;47.000;16.084;2023-04-01T07:11:11;4.57;;;4.20;;
1593;SDS011;790;47.000;16.084;2023-04-01T07:13:49;4.30;;;4.00;;
1593;SDS011;790;47.000;16.084;2023-04-01T07:16:21;4.93;;;4.07;;
1593;SDS011;790;47.000;16.084;2023-04-01T07:18:54;4.10;;;3.80;;
1593;SDS011;790;47.000;16.084;2023-04-01T07:21:29;4.10;;;3.77;;
1593;SDS011;790;47.000;16.084;2023-04-01T07:24:01;3.83;;;3.53;;
1593;SDS011;790;47.000;16.084;2023-04-01T07:26:31;3.40;;;3.10;;
1593;SDS011;790;47.000;16.084;2023-04-01T07:28:58;3.27;;;3.17;;
1593;SDS011;790;47.000;16.084;2023-04-01T07:31:30;3.43;;;3.23;;
1593;SDS011;790;47.000;16.084;2023-04-01T07:34:12;3.47;;;3.27;;
1593;SDS011;790;47.000;16.084;2023-04-01T07:36:47;2.67;;;2.57;;
1593;SDS011;790;47.000;16.084;2023-04-01T07:39:24;3.10;;;2.90;;
1593;SDS011;790;47.000;16.084;2023-04-01T07:42:01;2.53;;;2.43;;
1593;SDS011;790;47.000;16.084;2023-04-01T07:44:37;3.20;;;3.00;;
1593;SDS011;790;47.000;16.084;2023-04-01T07:47:15;4.73;;;2.60;;
1593;SDS011;790;47.000;16.084;2023-04-01T07:49:54;2.77;;;2.57;;
1593;SDS011;790;47.000;16.084;2023-04-01T07:52:31;3.47;;;2.40;;
1593;SDS011;790;47.000;16.084;2023-04-01T07:55:02;2.53;;;2.43;;
1593;SDS011;790;47.000;16.084;2023-04-01T07:57:34;2.57;;;2.37;;
1593;SDS011;790;47.000;16.084;2023-04-01T08:00:10;2.30;;;2.20;;
1593;SDS011;790;47.000;16.084;2023-04-01T08:02:56;2.30;;;2.20;;
1593;SDS011;790;47.000;16.084;2023-04-01T08:05:37;2.30;;;2.20;;
1593;SDS011;790;47.000;16.084;2023-04-01T08:08:15;2.50;;;2.30;;
1593;SDS011;790;47.000;16.084;2023-04-01T08:10:51;2.20;;;2.10;;
1593;SDS011;790;47.000;16.084;2023-04-01T08:13:25;2.50;;;2.40;;
1593;SDS011;790;47.000;16.084;2023-04-01T08:16:03;2.37;;;2.23;;
1593;SDS011;790;47.000;16.084;2023-04-01T08:18:38;3.37;;;2.17;;
1593;SDS011;790;47.000;16.084;2023-04-01T08:21:12;2.43;;;2.10;;
1593;SDS011;790;47.000;16.084;2023-04-01T08:23:46;2.40;;;1.83;;
1593;SDS011;790;47.000;16.084;2023-04-01T08:26:19;2.30;;;2.20;;
1593;SDS011;790;47.000;16.084;2023-04-01T08:28:57;2.47;;;2.03;;
1593;SDS011;790;47.000;16.084;2023-04-01T08:31:29;2.33;;;1.70;;
1593;SDS011;790;47.000;16.084;2023-04-01T08:34:02;1.50;;;1.50;;
1593;SDS011;790;47.000;16.084;2023-04-01T08:36:32;1.90;;;1.80;;
1593;SDS011;790;47.000;16.084;2023-04-01T08:39:05;2.10;;;2.00;;
1593;SDS011;790;47.000;16.084;2023-04-01T08:41:56;2.63;;;2.43;;
1593;SDS011;790;47.000;16.084;2023-04-01T08:47:33;2.17;;;1.93;;
1593;SDS011;790;47.000;16.084;2023-04-01T08:53:27;2.10;;;2.00;;
1593;SDS011;790;47.000;16.084;2023-04-01T08:56:17;2.93;;;2.13;;
1593;SDS011;790;47.000;16.084;2023-04-01T08:59:03;1.87;;;1.77;;
1593;SDS011;790;47.000;16.084;2023-04-01T09:01:52;1.73;;;1.60;;
1593;SDS011;790;47.000;16.084;2023-04-01T09:04:33;2.10;;;2.00;;
1593;SDS011;790;47.000;16.084;2023-04-01T09:07:18;2.30;;;2.20;;
1593;SDS011;790;47.000;16.084;2023-04-01T09:10:01;3.97;;;3.23;;
1593;SDS011;790;47.000;16.084;2023-04-01T09:12:43;2.50;;;2.30;;
1593;SDS011;790;47.000;16.084;2023-04-01T09:15:30;2.40;;;2.20;;
1593;SDS011;790;47.000;16.084;2023-04-01T09:18:24;1.47;;;1.37;;
1593;SDS011;790;47.000;16.084;2023-04-01T09:21:24;1.20;;;1.10;;
1593;SDS011;790;47.000;16.084;2023-04-01T09:24:11;0.90;;;0.90;;
1593;SDS011;790;47.000;16.084;2023-04-01T09:26:58;0.80;;;0.80;;
1593;SDS011;790;47.000;16.084;2023-04-01T09:32:30;0.90;;;0.90;;
1593;SDS011;790;47.000;16.084;2023-04-01T09:35:18;0.90;;;0.90;;
1593;SDS011;790;47.000;16.084;2023-04-01T09:37:52;1.00;;;1.00;;
1593;SDS011;790;47.000;16.084;2023-04-01T09:40:26;0.90;;;0.90;;
1593;SDS011;790;47.000;16.084;2023-04-01T09:43:07;1.20;;;1.20;;
1593;SDS011;790;47.000;16.084;2023-04-01T09:45:58;1.00;;;1.00;;
1593;SDS011;790;47.000;16.084;2023-04-01T09:51:40;1.30;;;1.20;;
1593;SDS011;790;47.000;16.084;2023-04-01T09:54:26;1.63;;;1.07;;
1593;SDS011;790;47.000;16.084;2023-04-01T10:03:19;0.70;;;0.70;;
1593;SDS011;790;47.000;16.084;2023-04-01T10:06:18;1.80;;;0.90;;
1593;SDS011;790;47.000;16.084;2023-04-01T10:15:52;0.70;;;0.70;;
1593;SDS011;790;47.000;16.084;2023-04-01T10:19:05;1.00;;;1.00;;
1593;SDS011;790;47.000;16.084;2023-04-01T10:22:17;0.67;;;0.67;;
1593;SDS011;790;47.000;16.084;2023-04-01T10:28:24;0.50;;;0.50;;
1593;SDS011;790;47.000;16.084;2023-04-01T10:31:14;0.90;;;0.90;;
1593;SDS011;790;47.000;16.084;2023-04-01T10:34:24;0.70;;;0.70;;
1593;SDS011;790;47.000;16.084;2023-04-01T10:37:39;0.80;;;0.80;;
1593;SDS011;790;47.000;16.084;2023-04-01T10:43:45;0.80;;;0.80;;
1593;SDS011;790;47.000;16.084;2023-04-01T10:46:57;1.80;;;0.70;;
1593;SDS011;790;47.000;16.084;2023-04-01T10:53:16;0.40;;;0.40;;
1593;SDS011;790;47.000;16.084;2023-04-01T11:08:37;0.73;;;0.73;;
1593;SDS011;790;47.000;16.084;2023-04-01T11:14:52;0.50;;;0.50;;
1593;SDS011;790;47.000;16.084;2023-04-01T11:26:57;2.10;;;0.50;;
1593;SDS011;790;47.000;16.084;2023-04-01T11:29:41;1.13;;;1.13;;
1593;SDS011;790;47.000;16.084;2023-04-01T11:32:33;0.70;;;0.70;;
1593;SDS011;790;47.000;16.084;2023-04-01T11:35:31;1.63;;;1.53;;
1593;SDS011;790;47.000;16.084;2023-04-01T11:38:18;0.90;;;0.90;;
1593;SDS011;790;47.000;16.084;2023-04-01T11:40:54;0.30;;;0.30;;
1593;SDS011;790;47.000;16.084;2023-04-01T11:43:30;0.60;;;0.50;;
1593;SDS011;790;47.000;16.084;2023-04-01T11:46:06;0.43;;;0.43;;
1593;SDS011;790;47.000;16.084;2023-04-01T11:48:40;1.20;;;1.20;;
1593;SDS011;790;47.000;16.084;2023-04-01T11:51:27;0.30;;;0.30;;
1593;SDS011;790;47.000;16.084;2023-04-01T11:54:28;0.30;;;0.30;;
1593;SDS011;790;47.000;16.084;2023-04-01T11:57:25;0.97;;;0.50;;
1593;SDS011;790;47.000;16.084;2023-04-01T12:03:21;0.50;;;0.50;;
1593;SDS011;790;47.000;16.084;2023-04-01T12:06:08;1.10;;;1.00;;
1593;SDS011;790;47.000;16.084;2023-04-01T12:08:46;0.80;;;0.80;;
1593;SDS011;790;47.000;16.084;2023-04-01T12:11:24;0.80;;;0.80;;
1593;SDS011;790;47.000;16.084;2023-04-01T12:14:02;1.83;;;0.90;;
1593;SDS011;790;47.000;16.084;2023-04-01T12:16:40;1.10;;;0.60;;
1593;SDS011;790;47.000;16.084;2023-04-01T12:19:17;1.13;;;0.30;;
1593;SDS011;790;47.000;16.084;2023-04-01T12:21:57;0.80;;;0.40;;
1593;SDS011;790;47.000;16.084;2023-04-01T12:24:45;0.50;;;0.50;;
1593;SDS011;790;47.000;16.084;2023-04-01T12:27:26;0.57;;;0.57;;
1593;SDS011;790;47.000;16.084;2023-04-01T12:30:15;0.30;;;0.30;;
1593;SDS011;790;47.000;16.084;2023-04-01T12:33:07;0.30;;;0.30;;
1593;SDS011;790;47.000;16.084;2023-04-01T12:35:50;0.50;;;0.50;;
1593;SDS011;790;47.000;16.084;2023-04-01T12:38:30;0.20;;;0.20;;
1593;SDS011;790;47.000;16.084;2023-04-01T12:41:08;0.70;;;0.70;;
1593;SDS011;790;47.000;16.084;2023-04-01T12:43:48;0.40;;;0.40;;
1593;SDS011;790;47.000;16.084;2023-04-01T12:46:38;0.40;;;0.23;;
1593;SDS011;790;47.000;16.084;2023-04-01T12:49:32;0.40;;;0.40;;
1593;SDS011;790;47.000;16.084;2023-04-01T12:52:12;0.40;;;0.40;;
1593;SDS011;790;47.000;16.084;2023-04-01T12:57:47;0.20;;;0.20;;
1593;SDS011;790;47.000;16.084;2023-04-01T13:00:40;0.23;;;0.23;;
1593;SDS011;790;47.000;16.084;2023-04-01T13:03:17;0.40;;;0.40;;
1593;SDS011;790;47.000;16.084;2023-04-01T13:06:16;0.30;;;0.30;;
1593;SDS011;790;47.000;16.084;2023-04-01T13:09:08;1.03;;;0.40;;
1593;SDS011;790;47.000;16.084;2023-04-01T13:11:47;0.20;;;0.20;;
1593;SDS011;790;47.000;16.084;2023-04-01T13:14:32;0.63;;;0.30;;
1593;SDS011;790;47.000;16.084;2023-04-01T13:17:15;0.40;;;0.40;;
1593;SDS011;790;47.000;16.084;2023-04-01T13:19:47;0.30;;;0.30;;
1593;SDS011;790;47.000;16.084;2023-04-01T13:22:20;0.20;;;0.20;;
1593;SDS011;790;47.000;16.084;2023-04-01T13:24:56;0.20;;;0.20;;
1593;SDS011;790;47.000;16.084;2023-04-01T13:27:29;0.40;;;0.40;;
1593;SDS011;790;47.000;16.084;2023-04-01T13:30:03;0.40;;;0.40;;
1593;SDS011;790;47.000;16.084;2023-04-01T13:32:44;0.30;;;0.30;;
1593;SDS011;790;47.000;16.084;2023-04-01T13:35:20;0.30;;;0.30;;
1593;SDS011;790;47.000;16.084;2023-04-01T13:38:05;0.30;;;0.30;;
1593;SDS011;790;47.000;16.084;2023-04-01T13:40:45;0.40;;;0.40;;
1593;SDS011;790;47.000;16.084;2023-04-01T13:43:20;0.87;;;0.40;;
1593;SDS011;790;47.000;16.084;2023-04-01T13:45:57;0.20;;;0.20;;
1593;SDS011;790;47.000;16.084;2023-04-01T13:54:42;0.73;;;0.20;;
1593;SDS011;790;47.000;16.084;2023-04-01T13:57:34;0.30;;;0.30;;
1593;SDS011;790;47.000;16.084;2023-04-01T14:00:23;1.90;;;0.30;;
1593;SDS011;790;47.000;16.084;2023-04-01T14:03:15;0.20;;;0.20;;
1593;SDS011;790;47.000;16.084;2023-04-01T14:05:56;0.20;;;0.20;;
1593;SDS011;790;47.000;16.084;2023-04-01T14:11:24;0.63;;;0.40;;
1593;SDS011;790;47.000;16.084;2023-04-01T14:14:02;0.30;;;0.30;;
1593;SDS011;790;47.000;16.084;2023-04-01T14:16:53;0.53;;;0.40;;
1593;SDS011;790;47.000;16.084;2023-04-01T14:19:33;0.53;;;0.30;;
1593;SDS011;790;47.000;16.084;2023-04-01T14:22:19;0.20;;;0.20;;
1593;SDS011;790;47.000;16.084;2023-04-01T14:25:06;0.30;;;0.30;;
1593;SDS011;790;47.000;16.084;2023-04-01T14:27:51;0.30;;;0.30;;
1593;SDS011;790;47.000;16.084;2023-04-01T14:33:29;0.85;;;0.85;;
1593;SDS011;790;47.000;16.084;2023-04-01T14:36:09;0.40;;;0.40;;
1593;SDS011;790;47.000;16.084;2023-04-01T14:38:53;0.40;;;0.40;;
1593;SDS011;790;47.000;16.084;2023-04-01T14:41:28;0.30;;;0.30;;
1593;SDS011;790;47.000;16.084;2023-04-01T14:44:23;0.30;;;0.30;;
1593;SDS011;790;47.000;16.084;2023-04-01T14:49:49;0.30;;;0.30;;
1593;SDS011;790;47.000;16.084;2023-04-01T14:52:22;0.20;;;0.20;;
1593;SDS011;790;47.000;16.084;2023-04-01T14:54:53;0.30;;;0.30;;
1593;SDS011;790;47.000;16.084;2023-04-01T14:57:23;0.30;;;0.30;;
1593;SDS011;790;47.000;16.084;2023-04-01T14:59:53;0.63;;;0.40;;
1593;SDS011;790;47.000;16.084;2023-04-01T15:05:23;0.23;;;0.23;;
1593;SDS011;790;47.000;16.084;2023-04-01T15:08:01;0.40;;;0.40;;
1593;SDS011;790;47.000;16.084;2023-04-01T15:10:44;0.20;;;0.20;;
1593;SDS011;790;47.000;16.084;2023-04-01T15:13:36;0.75;;;0.40;;
1593;SDS011;790;47.000;16.084;2023-04-01T15:16:24;0.30;;;0.30;;
1593;SDS011;790;47.000;16.084;2023-04-01T15:19:03;0.20;;;0.20;;
1593;SDS011;790;47.000;16.084;2023-04-01T15:21:55;0.20;;;0.20;;
1593;SDS011;790;47.000;16.084;2023-04-01T15:24:35;0.40;;;0.40;;
1593;SDS011;790;47.000;16.084;2023-04-01T15:27:18;0.30;;;0.30;;
1593;SDS011;790;47.000;16.084;2023-04-01T15:30:18;0.40;;;0.40;;
1593;SDS011;790;47.000;16.084;2023-04-01T15:33:07;0.47;;;0.47;;
1593;SDS011;790;47.000;16.084;2023-04-01T15:35:55;0.77;;;0.67;;
1593;SDS011;790;47.000;16.084;2023-04-01T15:38:30;0.38;;;0.38;;
1593;SDS011;790;47.000;16.084;2023-04-01T15:41:03;0.32;;;0.32;;
1593;SDS011;790;47.000;16.084;2023-04-01T15:43:40;1.13;;;0.37;;
1593;SDS011;790;47.000;16.084;2023-04-01T15:46:15;0.30;;;0.30;;
1593;SDS011;790;47.000;16.084;2023-04-01T15:49:08;0.40;;;0.40;;
1593;SDS011;790;47.000;16.084;2023-04-01T15:54:52;0.38;;;0.38;;
1593;SDS011;790;47.000;16.084;2023-04-01T15:57:39;2.78;;;0.40;;
1593;SDS011;790;47.000;16.084;2023-04-01T16:00:18;0.40;;;0.30;;
1593;SDS011;790;47.000;16.084;2023-04-01T16:03:00;0.38;;;0.38;;
1593;SDS011;790;47.000;16.084;2023-04-01T16:05:38;0.35;;;0.35;;
1593;SDS011;790;47.000;16.084;2023-04-01T16:08:19;0.50;;;0.50;;
1593;SDS011;790;47.000;16.084;2023-04-01T16:11:03;0.30;;;0.30;;
1593;SDS011;790;47.000;16.084;2023-04-01T16:13:42;0.30;;;0.30;;
1593;SDS011;790;47.000;16.084;2023-04-01T16:16:24;0.30;;;0.30;;
1593;SDS011;790;47.000;16.084;2023-04-01T16:19:01;0.38;;;0.38;;
1593;SDS011;790;47.000;16.084;2023-04-01T16:21:44;1.50;;;0.50;;
1593;SDS011;790;47.000;16.084;2023-04-01T16:24:20;1.53;;;1.03;;
1593;SDS011;790;47.000;16.084;2023-04-01T16:26:52;2.13;;;1.50;;
1593;SDS011;790;47.000;16.084;2023-04-01T16:29:26;0.53;;;0.53;;
1593;SDS011;790;47.000;16.084;2023-04-01T16:31:59;0.37;;;0.37;;
1593;SDS011;790;47.000;16.084;2023-04-01T16:34:38;0.30;;;0.30;;
1593;SDS011;790;47.000;16.084;2023-04-01T16:37:10;0.67;;;0.50;;
1593;SDS011;790;47.000;16.084;2023-04-01T16:39:46;0.60;;;0.60;;
1593;SDS011;790;47.000;16.084;2023-04-01T16:42:22;1.03;;;0.40;;
1593;SDS011;790;47.000;16.084;2023-04-01T16:44:59;7.33;;;0.70;;
1593;SDS011;790;47.000;16.084;2023-04-01T16:47:46;4.93;;;0.83;;
1593;SDS011;790;47.000;16.084;2023-04-01T16:50:17;3.10;;;1.20;;
1593;SDS011;790;47.000;16.084;2023-04-01T16:53:00;9.47;;;1.40;;
1593;SDS011;790;47.000;16.084;2023-04-01T16:55:43;4.13;;;0.87;;
1593;SDS011;790;47.000;16.084;2023-04-01T16:58:18;5.60;;;1.03;;
1593;SDS011;790;47.000;16.084;2023-04-01T17:00:51;9.73;;;1.47;;
1593;SDS011;790;47.000;16.084;2023-04-01T17:03:22;3.33;;;1.50;;
1593;SDS011;790;47.000;16.084;2023-04-01T17:08:50;5.63;;;1.53;;
1593;SDS011;790;47.000;16.084;2023-04-01T17:11:29;2.13;;;1.20;;
1593;SDS011;790;47.000;16.084;2023-04-01T17:14:07;1.43;;;0.70;;
1593;SDS011;790;47.000;16.084;2023-04-01T17:16:51;0.97;;;0.83;;
1593;SDS011;790;47.000;16.084;2023-04-01T17:19:27;0.87;;;0.70;;
1593;SDS011;790;47.000;16.084;2023-04-01T17:22:05;2.10;;;0.60;;
1593;SDS011;790;47.000;16.084;2023-04-01T17:24:47;3.20;;;0.50;;
1593;SDS011;790;47.000;16.084;2023-04-01T17:27:32;0.70;;;0.70;;
1593;SDS011;790;47.000;16.084;2023-04-01T17:30:14;2.77;;;1.10;;
1593;SDS011;790;47.000;16.084;2023-04-01T17:32:49;1.23;;;1.03;;
1593;SDS011;790;47.000;16.084;2023-04-01T17:35:30;1.00;;;1.00;;
1593;SDS011;790;47.000;16.084;2023-04-01T17:38:04;1.23;;;1.10;;
1593;SDS011;790;47.000;16.084;2023-04-01T17:40:41;1.10;;;1.00;;
1593;SDS011;790;47.000;16.084;2023-04-01T17:43:22;1.00;;;1.00;;
1593;SDS011;790;47.000;16.084;2023-04-01T17:46:00;2.03;;;1.03;;
1593;SDS011;790;47.000;16.084;2023-04-01T17:48:35;1.20;;;0.80;;